createdAt,value
2023-04-25T00:00:54.085Z,69.17
2023-04-25T00:03:26.325Z,69.42
2023-04-25T00:05:57.936Z,70.16
2023-04-25T00:08:29.830Z,70.52
2023-04-25T00:11:04.439Z,70.81
2023-04-25T00:13:35.264Z,71.36
2023-04-25T00:16:09.279Z,71.61
2023-04-25T00:18:40.867Z,71.70
2023-04-25T00:21:11.752Z,71.44
2023-04-25T00:23:42.296Z,71.34
2023-04-25T00:26:12.863Z,70.66
2023-04-25T00:28:43.874Z,71.04
2023-04-25T00:31:16.957Z,71.35
2023-04-25T00:33:47.749Z,71.64
2023-04-25T00:36:18.445Z,71.63
2023-04-25T00:38:48.988Z,70.67
2023-04-25T00:41:19.811Z,70.82
2023-04-25T00:43:52.387Z,70.77
2023-04-25T00:46:25.675Z,70.88
2023-04-25T00:48:56.483Z,70.92
2023-04-25T00:51:27.677Z,71.39
2023-04-25T00:53:58.792Z,71.19
2023-04-25T00:56:29.512Z,71.34
2023-04-25T00:59:00.920Z,71.34
2023-04-25T01:01:34.706Z,71.22
2023-04-25T01:04:05.953Z,71.16
2023-04-25T01:06:36.481Z,71.33
2023-04-25T01:09:08.845Z,71.48
2023-04-25T01:11:41.277Z,71.42
2023-04-25T01:14:11.925Z,71.38
2023-04-25T01:16:47.549Z,71.35
2023-04-25T01:19:21.991Z,71.57
2023-04-25T01:21:55.053Z,71.56
2023-04-25T01:24:25.936Z,71.53
2023-04-25T01:26:57.476Z,71.75
2023-04-25T01:29:29.676Z,71.78
2023-04-25T01:32:02.045Z,72.06
2023-04-25T01:34:32.951Z,72.32
2023-04-25T01:37:06.349Z,72.09
2023-04-25T01:39:36.877Z,72.02
2023-04-25T01:42:07.698Z,72.16
2023-04-25T01:44:38.206Z,72.27
2023-04-25T01:47:09.574Z,72.14
2023-04-25T01:49:40.180Z,72.42
2023-04-25T01:52:13.158Z,72.55
2023-04-25T01:54:46.007Z,72.23
2023-04-25T01:57:18.334Z,72.92
2023-04-25T01:59:49.367Z,72.73
2023-04-25T02:02:42.842Z,72.68
2023-04-25T02:05:40.400Z,72.89
2023-04-25T02:08:16.737Z,73.22
2023-04-25T02:10:47.506Z,73.13
2023-04-25T02:13:21.583Z,72.91
2023-04-25T02:16:17.041Z,73.19
2023-04-25T02:18:48.152Z,73.43
2023-04-25T02:21:18.538Z,73.66
2023-04-25T02:23:53.393Z,73.97
2023-04-25T02:26:25.028Z,73.90
2023-04-25T02:28:56.035Z,74.09
2023-04-25T02:31:27.197Z,74.10
2023-04-25T02:33:57.680Z,74.38
2023-04-25T02:36:28.831Z,74.26
2023-04-25T02:39:02.114Z,74.42
2023-04-25T02:41:32.710Z,74.37
2023-04-25T02:44:03.157Z,74.54
2023-04-25T02:46:39.541Z,74.76
2023-04-25T02:49:10.929Z,74.54
2023-04-25T02:51:41.506Z,74.62
2023-04-25T02:54:15.095Z,74.50
2023-04-25T02:56:48.473Z,74.70
2023-04-25T02:59:24.538Z,74.98
2023-04-25T03:01:55.073Z,74.92
2023-04-25T03:04:26.035Z,75.33
2023-04-25T03:06:57.124Z,75.04
2023-04-25T03:09:30.134Z,75.28
2023-04-25T03:12:01.427Z,75.21
2023-04-25T03:14:32.065Z,75.06
2023-04-25T03:17:03.181Z,74.89
2023-04-25T03:19:33.673Z,74.89
2023-04-25T03:22:04.077Z,74.79
2023-04-25T03:24:38.381Z,75.41
2023-04-25T03:27:08.929Z,75.94
2023-04-25T03:29:39.496Z,76.34
2023-04-25T03:32:10.550Z,76.48
2023-04-25T03:34:41.319Z,76.70
2023-04-25T03:37:12.286Z,76.40
2023-04-25T03:39:45.521Z,76.28
2023-04-25T03:42:16.083Z,75.83
2023-04-25T03:44:48.527Z,75.74
2023-04-25T03:47:19.203Z,75.93
2023-04-25T03:49:52.860Z,75.72
2023-04-25T03:52:26.804Z,76.15
2023-04-25T03:55:00.524Z,75.97
2023-04-25T03:57:31.056Z,76.03
2023-04-25T04:00:02.586Z,76.21
2023-04-25T04:02:45.591Z,76.33
2023-04-25T04:05:17.357Z,76.67
2023-04-25T04:07:54.477Z,77.00
2023-04-25T04:10:28.752Z,76.77
2023-04-25T04:12:59.799Z,76.48
2023-04-25T04:15:30.238Z,76.05
2023-04-25T04:18:03.805Z,75.97
2023-04-25T04:20:34.666Z,76.52
2023-04-25T04:23:06.454Z,76.94
2023-04-25T04:25:40.932Z,77.16
2023-04-25T04:28:31.936Z,76.91
2023-04-25T04:31:08.992Z,76.99
2023-04-25T04:33:39.609Z,76.89
2023-04-25T04:36:14.307Z,76.88
2023-04-25T04:38:45.470Z,77.05
2023-04-25T04:41:26.405Z,76.98
2023-04-25T04:44:15.329Z,77.07
2023-04-25T04:46:59.693Z,77.56
2023-04-25T04:50:00.860Z,77.87
2023-04-25T04:52:43.500Z,77.92
2023-04-25T04:55:49.455Z,78.32
2023-04-25T04:58:53.628Z,77.73
2023-04-25T05:01:39.931Z,78.18
2023-04-25T05:04:21.802Z,78.65
2023-04-25T05:06:52.521Z,79.00
2023-04-25T05:09:41.362Z,78.77
2023-04-25T05:12:23.026Z,78.74
2023-04-25T05:15:16.491Z,79.03
2023-04-25T05:18:15.372Z,78.91
2023-04-25T05:20:51.651Z,78.91
2023-04-25T05:23:48.027Z,78.97
2023-04-25T05:26:47.693Z,78.57
2023-04-25T05:29:40.391Z,77.59
2023-04-25T05:32:24.675Z,77.25
2023-04-25T05:34:55.887Z,76.39
2023-04-25T05:37:31.657Z,75.97
2023-04-25T05:40:12.228Z,76.52
2023-04-25T05:42:55.177Z,77.36
2023-04-25T05:45:44.548Z,78.94
2023-04-25T05:48:35.295Z,80.16
2023-04-25T05:51:19.632Z,81.59
2023-04-25T05:53:53.036Z,82.27
2023-04-25T05:56:24.149Z,83.36
2023-04-25T05:58:56.642Z,83.81
2023-04-25T06:01:27.447Z,84.08
2023-04-25T06:04:00.764Z,84.82
2023-04-25T06:06:31.569Z,84.51
2023-04-25T06:09:04.187Z,84.22
2023-04-25T06:11:35.789Z,84.41
2023-04-25T06:14:07.486Z,84.87
2023-04-25T06:16:39.942Z,84.11
2023-04-25T06:19:12.946Z,83.09
2023-04-25T06:21:43.547Z,82.60
2023-04-25T06:24:14.099Z,82.81
2023-04-25T06:26:44.634Z,80.98
2023-04-25T06:29:15.177Z,80.53
2023-04-25T06:31:45.885Z,81.11
2023-04-25T06:34:19.310Z,80.66
2023-04-25T06:36:50.041Z,80.32
2023-04-25T06:39:21.232Z,81.41
2023-04-25T06:41:53.352Z,79.93
2023-04-25T06:44:44.397Z,81.10
2023-04-25T06:47:16.302Z,80.32
2023-04-25T06:49:50.174Z,80.32
2023-04-25T06:52:21.573Z,80.57
2023-04-25T06:54:52.597Z,80.90
2023-04-25T06:57:38.401Z,80.60
2023-04-25T07:00:29.655Z,79.95
2023-04-25T07:03:00.894Z,80.27
2023-04-25T07:05:34.909Z,80.89
2023-04-25T07:08:06.339Z,80.26
2023-04-25T07:10:37.393Z,79.80
2023-04-25T07:13:10.247Z,79.81
2023-04-25T07:15:41.041Z,80.05
2023-04-25T07:18:11.918Z,79.53
2023-04-25T07:20:45.345Z,79.63
2023-04-25T07:23:16.615Z,80.18
2023-04-25T07:25:47.595Z,81.12
2023-04-25T07:28:22.764Z,81.59
2023-04-25T07:30:53.195Z,81.03
2023-04-25T07:33:24.519Z,81.25
2023-04-25T07:35:57.835Z,80.11
2023-04-25T07:38:29.019Z,80.20
2023-04-25T07:40:59.542Z,80.72
2023-04-25T07:43:30.225Z,81.16
2023-04-25T07:46:03.874Z,80.37
2023-04-25T07:48:37.057Z,80.14
2023-04-25T07:51:10.901Z,79.98
2023-04-25T07:53:42.167Z,80.85
2023-04-25T07:56:16.789Z,80.86
2023-04-25T07:58:50.105Z,82.48
2023-04-25T08:01:23.425Z,82.56
2023-04-25T08:04:06.087Z,83.62
2023-04-25T08:07:01.769Z,83.94
2023-04-25T08:09:37.947Z,84.51
2023-04-25T08:12:12.945Z,84.31
2023-04-25T08:14:44.504Z,84.96
2023-04-25T08:17:15.643Z,85.00
2023-04-25T08:19:46.167Z,85.09
2023-04-25T08:22:28.541Z,85.35
2023-04-25T08:25:15.328Z,85.70
2023-04-25T08:27:47.340Z,86.27
2023-04-25T08:30:18.280Z,85.95
2023-04-25T08:32:50.628Z,85.52
2023-04-25T08:35:39.750Z,84.72
2023-04-25T08:38:13.577Z,86.01
2023-04-25T08:40:44.841Z,86.01
2023-04-25T08:43:22.515Z,86.17
2023-04-25T08:45:53.079Z,86.23
2023-04-25T08:48:37.663Z,86.13
2023-04-25T08:51:11.960Z,86.10
2023-04-25T08:53:46.964Z,87.15
2023-04-25T08:56:23.402Z,88.11
2023-04-25T08:58:54.323Z,89.76
2023-04-25T09:01:25.877Z,89.43
2023-04-25T09:03:58.359Z,89.74
2023-04-25T09:06:29.046Z,90.14
2023-04-25T09:09:08.082Z,89.60
2023-04-25T09:11:40.373Z,88.66
2023-04-25T09:14:18.678Z,88.41
2023-04-25T09:17:09.792Z,89.12
2023-04-25T09:19:48.648Z,90.05
2023-04-25T09:22:31.410Z,90.33
2023-04-25T09:25:08.274Z,90.98
2023-04-25T09:27:38.671Z,91.06
2023-04-25T09:30:20.642Z,91.29
2023-04-25T09:33:14.634Z,91.75
2023-04-25T09:35:54.095Z,92.53
2023-04-25T09:38:35.505Z,92.03
2023-04-25T09:41:17.925Z,91.63
2023-04-25T09:43:54.309Z,91.19
2023-04-25T09:46:29.432Z,91.57
2023-04-25T09:49:00.229Z,91.89
2023-04-25T09:51:37.887Z,92.08
2023-04-25T09:54:10.478Z,93.33
2023-04-25T09:56:51.416Z,93.09
2023-04-25T09:59:24.113Z,91.60
2023-04-25T10:01:56.229Z,91.36
2023-04-25T10:04:38.932Z,91.93
2023-04-25T10:07:24.309Z,91.54
2023-04-25T10:10:04.551Z,92.69
2023-04-25T10:15:13.144Z,93.01
2023-04-25T10:17:43.972Z,93.37
2023-04-25T10:20:15.622Z,94.76
2023-04-25T10:22:49.267Z,95.47
2023-04-25T10:25:19.900Z,93.60
2023-04-25T10:27:57.632Z,93.61
2023-04-25T10:30:28.292Z,94.12
2023-04-25T10:33:00.052Z,91.34
2023-04-25T10:35:33.860Z,92.54
2023-04-25T10:38:07.961Z,91.72
2023-04-25T10:40:38.674Z,92.63
2023-04-25T10:43:44.000Z,91.72
2023-04-25T10:46:20.071Z,91.26
2023-04-25T10:48:55.556Z,90.50
2023-04-25T10:51:30.762Z,90.56
2023-04-25T10:54:06.197Z,90.89
2023-04-25T10:56:41.474Z,90.85
2023-04-25T10:59:17.071Z,89.06
2023-04-25T11:01:50.364Z,87.73
2023-04-25T11:04:25.330Z,87.89
2023-04-25T11:07:09.477Z,88.31
2023-04-25T11:09:43.924Z,88.41
2023-04-25T11:12:16.074Z,89.52
2023-04-25T11:14:49.135Z,89.95
2023-04-25T11:17:19.801Z,90.87
2023-04-25T11:19:52.977Z,90.62
2023-04-25T11:22:25.350Z,91.41
2023-04-25T11:24:55.975Z,92.12
2023-04-25T11:27:26.591Z,92.10
2023-04-25T11:29:59.753Z,91.76
2023-04-25T11:32:30.414Z,91.61
2023-04-25T11:35:02.296Z,90.42
2023-04-25T11:37:33.218Z,89.87
2023-04-25T11:40:03.846Z,90.17
2023-04-25T11:42:34.842Z,90.64
2023-04-25T11:45:10.745Z,90.90
2023-04-25T11:47:41.439Z,90.98
2023-04-25T11:50:15.390Z,89.06
2023-04-25T11:52:48.429Z,89.79
2023-04-25T11:55:20.823Z,88.93
2023-04-25T11:57:55.464Z,88.78
2023-04-25T12:00:29.801Z,88.97
2023-04-25T12:03:01.776Z,89.53
2023-04-25T12:05:35.235Z,89.52
2023-04-25T12:08:15.937Z,90.23
2023-04-25T12:10:49.736Z,88.83
2023-04-25T12:13:25.948Z,88.73
2023-04-25T12:15:59.623Z,88.88
2023-04-25T12:18:31.467Z,89.69
2023-04-25T12:21:02.888Z,90.30
2023-04-25T12:23:33.705Z,90.35
2023-04-25T12:26:05.226Z,88.26
2023-04-25T12:28:37.015Z,89.63
2023-04-25T12:31:11.490Z,90.18
2023-04-25T12:33:44.060Z,90.70
2023-04-25T12:36:14.795Z,91.33
2023-04-25T12:38:46.550Z,89.43
2023-04-25T12:41:17.263Z,89.44
2023-04-25T12:43:47.719Z,91.72
2023-04-25T12:46:21.037Z,90.72
2023-04-25T12:48:51.743Z,90.76
2023-04-25T12:51:22.411Z,90.92
2023-04-25T12:53:52.740Z,91.72
2023-04-25T12:56:25.477Z,88.71
2023-04-25T12:58:56.143Z,88.70
2023-04-25T13:01:29.497Z,85.23
2023-04-25T13:04:00.266Z,87.17
2023-04-25T13:06:31.366Z,87.18
2023-04-25T13:09:01.994Z,86.48
2023-04-25T13:11:32.623Z,87.00
2023-04-25T13:14:04.129Z,87.39
2023-04-25T13:16:37.610Z,83.16
2023-04-25T13:19:09.397Z,83.61
2023-04-25T13:21:39.961Z,84.80
2023-04-25T13:24:11.061Z,83.09
2023-04-25T13:26:41.845Z,84.62
2023-04-25T13:29:12.332Z,83.39
2023-04-25T13:31:45.471Z,82.69
2023-04-25T13:34:16.131Z,79.95
2023-04-25T13:36:46.817Z,80.20
2023-04-25T13:39:17.406Z,80.39
2023-04-25T13:41:47.934Z,79.74
2023-04-25T13:44:18.518Z,80.40
2023-04-25T13:46:51.635Z,80.85
2023-04-25T13:49:22.003Z,81.93
2023-04-25T13:51:52.581Z,80.86
2023-04-25T13:54:23.918Z,80.48
2023-04-25T13:56:59.692Z,77.31
2023-04-25T13:59:30.091Z,77.14
2023-04-25T14:02:03.321Z,76.79
2023-04-25T14:04:34.084Z,75.68
2023-04-25T14:07:04.847Z,74.80
2023-04-25T14:09:36.030Z,73.43
2023-04-25T14:12:07.263Z,72.67
2023-04-25T14:14:37.664Z,71.68
2023-04-25T14:17:12.020Z,72.61
2023-04-25T14:19:46.802Z,72.40
2023-04-25T14:22:17.370Z,72.25
2023-04-25T14:24:47.951Z,71.87
2023-04-25T14:27:18.382Z,63.70
2023-04-25T14:29:48.854Z,64.04
2023-04-25T14:32:22.295Z,60.88
2023-04-25T14:34:53.032Z,63.11
2023-04-25T14:37:23.725Z,64.78
2023-04-25T14:39:54.687Z,64.50
2023-04-25T14:42:25.427Z,64.82
2023-04-25T14:44:56.255Z,64.30
2023-04-25T14:47:29.358Z,65.00
2023-04-25T14:50:00.693Z,66.15
2023-04-25T14:52:31.826Z,65.10
2023-04-25T14:55:06.268Z,65.15
2023-04-25T14:57:36.959Z,64.67
2023-04-25T15:00:11.051Z,64.32
2023-04-25T15:02:44.552Z,62.88
2023-04-25T15:05:15.172Z,61.59
2023-04-25T15:07:45.711Z,61.42
2023-04-25T15:10:17.754Z,60.23
2023-04-25T15:12:49.052Z,60.35
2023-04-25T15:15:26.098Z,60.34
2023-04-25T15:18:02.172Z,60.53
2023-04-25T15:20:32.658Z,60.43
2023-04-25T15:23:04.596Z,59.02
2023-04-25T15:25:35.356Z,58.17
2023-04-25T15:28:05.862Z,57.79
2023-04-25T15:30:36.523Z,56.46
2023-04-25T15:33:09.538Z,57.44
2023-04-25T15:35:40.051Z,57.10
2023-04-25T15:38:11.482Z,55.69
2023-04-25T15:40:41.954Z,55.91
2023-04-25T15:43:16.282Z,58.62
2023-04-25T15:45:47.197Z,58.07
2023-04-25T15:48:20.236Z,58.84
2023-04-25T15:50:50.801Z,58.97
2023-04-25T15:53:21.424Z,59.86
2023-04-25T15:55:51.924Z,60.60
2023-04-25T15:58:22.502Z,60.67
2023-04-25T16:00:53.011Z,60.68
2023-04-25T16:03:26.245Z,59.38
2023-04-25T16:05:56.858Z,60.11
2023-04-25T16:08:29.860Z,60.00
2023-04-25T16:11:00.538Z,58.80
2023-04-25T16:13:31.156Z,59.05
2023-04-25T16:16:01.912Z,59.53
2023-04-25T16:18:35.295Z,60.44
2023-04-25T16:21:06.369Z,60.71
2023-04-25T16:23:37.195Z,61.24
2023-04-25T16:26:08.970Z,60.19
2023-04-25T16:28:39.843Z,60.82
2023-04-25T16:31:10.293Z,61.08
2023-04-25T16:33:43.446Z,59.22
2023-04-25T16:36:14.363Z,59.26
2023-04-25T16:38:45.038Z,59.91
2023-04-25T16:41:15.635Z,61.25
2023-04-25T16:43:46.034Z,60.49
2023-04-25T16:46:18.495Z,60.71
2023-04-25T16:48:54.172Z,59.39
2023-04-25T16:51:24.871Z,61.11
2023-04-25T16:53:56.432Z,61.55
2023-04-25T16:56:27.196Z,62.27
2023-04-25T16:58:58.125Z,62.22
2023-04-25T17:01:28.961Z,62.53
2023-04-25T17:04:02.448Z,62.55
2023-04-25T17:06:33.210Z,63.52
2023-04-25T17:09:04.072Z,63.63
2023-04-25T17:11:34.779Z,63.69
2023-04-25T17:14:05.171Z,64.16
2023-04-25T17:16:39.961Z,64.74
2023-04-25T17:19:12.918Z,64.60
2023-04-25T17:21:43.503Z,63.95
2023-04-25T17:24:15.920Z,64.50
2023-04-25T17:26:48.725Z,65.55
2023-04-25T17:29:19.354Z,67.36
2023-04-25T17:31:50.256Z,67.42
2023-04-25T17:34:23.397Z,68.02
2023-04-25T17:36:54.738Z,69.23
2023-04-25T17:39:25.578Z,69.60
2023-04-25T17:41:56.016Z,69.63
2023-04-25T17:44:26.603Z,70.02
2023-04-25T17:46:57.048Z,69.53
2023-04-25T17:49:30.171Z,69.94
2023-04-25T17:52:00.660Z,71.18
2023-04-25T17:54:31.572Z,72.06
2023-04-25T17:57:02.704Z,72.00
2023-04-25T17:59:33.442Z,72.00
2023-04-25T18:02:04.078Z,71.35
2023-04-25T18:07:08.771Z,69.93
2023-04-25T18:09:39.232Z,70.47
2023-04-25T18:12:10.806Z,71.20
2023-04-25T18:14:41.403Z,71.43
2023-04-25T18:17:12.589Z,71.85
2023-04-25T18:19:45.645Z,71.39
2023-04-25T18:22:16.238Z,72.29
2023-04-25T18:24:47.893Z,73.16
2023-04-25T18:27:18.478Z,73.74
2023-04-25T18:29:48.989Z,74.56
2023-04-25T18:32:19.509Z,75.47
2023-04-25T18:34:52.943Z,76.29
2023-04-25T18:37:23.887Z,77.25
2023-04-25T18:39:54.939Z,77.74
2023-04-25T18:42:25.355Z,78.32
2023-04-25T18:44:56.417Z,78.98
2023-04-25T18:47:27.233Z,79.39
2023-04-25T18:50:00.265Z,78.93
2023-04-25T18:52:30.979Z,79.23
2023-04-25T18:55:01.408Z,78.64
2023-04-25T18:57:32.278Z,78.35
2023-04-25T19:00:05.548Z,78.58
2023-04-25T19:02:37.982Z,78.60
2023-04-25T19:05:13.390Z,78.35
2023-04-25T19:07:45.258Z,77.72
2023-04-25T19:10:16.138Z,77.65
2023-04-25T19:12:46.579Z,78.03
2023-04-25T19:15:17.081Z,78.41
2023-04-25T19:17:48.204Z,78.09
2023-04-25T19:20:22.059Z,79.00
2023-04-25T19:22:53.041Z,79.42
2023-04-25T19:25:25.108Z,78.88
2023-04-25T19:27:57.792Z,79.28
2023-04-25T19:30:29.347Z,79.88
2023-04-25T19:33:00.497Z,79.63
2023-04-25T19:35:34.174Z,79.22
2023-04-25T19:38:05.852Z,79.14
2023-04-25T19:40:36.943Z,78.26
2023-04-25T19:43:09.603Z,77.59
2023-04-25T19:45:40.714Z,77.77
2023-04-25T19:48:14.225Z,77.26
2023-04-25T19:50:52.645Z,77.43
2023-04-25T19:53:23.469Z,77.53
2023-04-25T19:55:54.621Z,77.65
2023-04-25T19:58:25.108Z,77.34
2023-04-25T20:00:56.195Z,77.82
2023-04-25T20:03:27.100Z,77.82
2023-04-25T20:06:00.180Z,77.78
2023-04-25T20:08:30.721Z,78.17
2023-04-25T20:11:01.352Z,78.78
2023-04-25T20:13:32.821Z,79.48
2023-04-25T20:16:07.548Z,79.25
2023-04-25T20:18:38.548Z,79.64
2023-04-25T20:21:11.537Z,80.77
2023-04-25T20:23:42.247Z,81.68
2023-04-25T20:26:13.485Z,81.96
2023-04-25T20:28:44.704Z,81.53
2023-04-25T20:31:15.490Z,81.48
2023-04-25T20:33:46.067Z,81.03
2023-04-25T20:36:19.892Z,80.06
2023-04-25T20:38:50.600Z,80.15
2023-04-25T20:41:21.683Z,79.84
2023-04-25T20:43:53.447Z,79.60
2023-04-25T20:46:24.034Z,80.11
2023-04-25T20:48:54.920Z,80.33
2023-04-25T20:51:28.169Z,80.42
2023-04-25T20:53:58.609Z,79.61
2023-04-25T20:56:29.394Z,79.46
2023-04-25T20:59:01.051Z,78.55
2023-04-25T21:01:31.835Z,78.40
2023-04-25T21:04:02.747Z,78.45
2023-04-25T21:06:36.955Z,77.94
2023-04-25T21:09:07.827Z,78.45
2023-04-25T21:11:38.877Z,77.97
2023-04-25T21:14:09.931Z,77.48
2023-04-25T21:16:42.517Z,77.45
2023-04-25T21:19:13.258Z,77.92
2023-04-25T21:21:46.666Z,77.94
2023-04-25T21:24:17.371Z,77.44
2023-04-25T21:26:47.786Z,77.79
2023-04-25T21:29:18.335Z,77.64
2023-04-25T21:31:49.387Z,77.73
2023-04-25T21:34:20.998Z,77.74
2023-04-25T21:36:54.195Z,77.97
2023-04-25T21:39:25.304Z,77.99
2023-04-25T21:41:55.851Z,77.94
2023-04-25T21:44:28.794Z,78.07
2023-04-25T21:46:59.229Z,78.28
2023-04-25T21:49:30.147Z,78.61
2023-04-25T21:52:03.603Z,78.32
2023-04-25T21:54:36.712Z,78.91
2023-04-25T21:57:07.458Z,78.86
2023-04-25T21:59:38.788Z,79.17
2023-04-25T22:02:09.298Z,78.80
2023-04-25T22:04:40.223Z,79.37
2023-04-25T22:07:13.508Z,79.18
2023-04-25T22:09:54.275Z,79.35
2023-04-25T22:12:26.207Z,79.69
2023-04-25T22:14:56.899Z,80.03
2023-04-25T22:17:28.084Z,79.75
2023-04-25T22:19:59.818Z,79.53
2023-04-25T22:22:33.929Z,79.84
2023-04-25T22:25:04.424Z,79.84
2023-04-25T22:27:35.056Z,79.53
2023-04-25T22:30:05.522Z,78.61
2023-04-25T22:32:36.089Z,78.40
2023-04-25T22:35:07.000Z,78.56
2023-04-25T22:37:40.408Z,78.91
2023-04-25T22:40:12.350Z,79.18
2023-04-25T22:42:43.791Z,79.22
2023-04-25T22:45:16.173Z,79.45
2023-04-25T22:47:46.853Z,79.67
2023-04-25T22:50:18.068Z,79.53
2023-04-25T22:52:51.142Z,79.24
2023-04-25T22:55:22.508Z,79.29
2023-04-25T22:57:53.073Z,79.15
2023-04-25T23:00:26.393Z,79.19
2023-04-25T23:02:57.205Z,79.73
2023-04-25T23:05:28.346Z,79.45
2023-04-25T23:08:01.454Z,79.08
2023-04-25T23:10:32.210Z,79.48
2023-04-25T23:13:04.050Z,79.89
2023-04-25T23:15:34.998Z,80.04
2023-04-25T23:18:05.622Z,80.27
2023-04-25T23:20:36.577Z,80.38
2023-04-25T23:23:10.448Z,80.59
2023-04-25T23:25:42.683Z,81.33
2023-04-25T23:28:13.236Z,81.41
2023-04-25T23:30:43.693Z,81.22
2023-04-25T23:33:14.357Z,80.79
2023-04-25T23:35:44.903Z,80.64
2023-04-25T23:38:17.967Z,80.21
2023-04-25T23:40:48.605Z,80.14
2023-04-25T23:43:19.156Z,79.15
2023-04-25T23:45:49.730Z,79.45
2023-04-25T23:48:20.492Z,79.36
2023-04-25T23:50:51.053Z,79.53
2023-04-25T23:53:24.203Z,79.56
2023-04-25T23:55:54.902Z,80.07
2023-04-25T23:58:25.349Z,79.86
